sensor_id;sensor_type;location;lat;lon;timestamp;temperature;humidity
72114;SHT31;59989;46.220;19.888;2022-07-23T00:01:14;21.31;57.78
72114;SHT31;59989;46.220;19.888;2022-07-23T00:04:23;21.25;58.38
72114;SHT31;59989;46.220;19.888;2022-07-23T00:07:26;21.21;57.38
72114;SHT31;59989;46.220;19.888;2022-07-23T00:10:28;21.15;58.32
72114;SHT31;59989;46.220;19.888;2022-07-23T00:13:31;21.12;58.78
72114;SHT31;59989;46.220;19.888;2022-07-23T00:16:33;21.07;59.42
72114;SHT31;59989;46.220;19.888;2022-07-23T00:19:36;21.04;59.33
72114;SHT31;59989;46.220;19.888;2022-07-23T00:25:50;20.98;60.36
72114;SHT31;59989;46.220;19.888;2022-07-23T00:28:53;21.21;59.10
72114;SHT31;59989;46.220;19.888;2022-07-23T00:31:55;21.10;58.16
72114;SHT31;59989;46.220;19.888;2022-07-23T00:34:58;20.98;58.33
72114;SHT31;59989;46.220;19.888;2022-07-23T00:38:02;20.86;59.84
72114;SHT31;59989;46.220;19.888;2022-07-23T00:41:04;20.76;58.74
72114;SHT31;59989;46.220;19.888;2022-07-23T00:44:18;20.67;59.75
72114;SHT31;59989;46.220;19.888;2022-07-23T00:47:21;20.56;57.49
72114;SHT31;59989;46.220;19.888;2022-07-23T00:50:23;20.56;57.12
72114;SHT31;59989;46.220;19.888;2022-07-23T00:53:26;20.45;55.93
72114;SHT31;59989;46.220;19.888;2022-07-23T00:56:30;20.45;56.02
72114;SHT31;59989;46.220;19.888;2022-07-23T00:59:32;20.46;54.43
72114;SHT31;59989;46.220;19.888;2022-07-23T01:02:35;20.48;54.60
72114;SHT31;59989;46.220;19.888;2022-07-23T01:05:38;20.50;55.66
72114;SHT31;59989;46.220;19.888;2022-07-23T01:08:41;20.45;54.49
72114;SHT31;59989;46.220;19.888;2022-07-23T01:11:44;20.40;55.04
72114;SHT31;59989;46.220;19.888;2022-07-23T01:14:59;20.35;55.34
72114;SHT31;59989;46.220;19.888;2022-07-23T01:18:05;20.33;54.59
72114;SHT31;59989;46.220;19.888;2022-07-23T01:21:11;20.26;54.87
72114;SHT31;59989;46.220;19.888;2022-07-23T01:24:16;20.21;54.44
72114;SHT31;59989;46.220;19.888;2022-07-23T01:27:28;20.15;57.91
72114;SHT31;59989;46.220;19.888;2022-07-23T01:30:35;20.21;55.74
72114;SHT31;59989;46.220;19.888;2022-07-23T01:33:41;20.17;56.14
72114;SHT31;59989;46.220;19.888;2022-07-23T01:36:44;20.09;56.38
72114;SHT31;59989;46.220;19.888;2022-07-23T01:39:47;20.07;56.08
72114;SHT31;59989;46.220;19.888;2022-07-23T01:42:50;20.02;56.79
72114;SHT31;59989;46.220;19.888;2022-07-23T01:45:53;20.00;56.58
72114;SHT31;59989;46.220;19.888;2022-07-23T01:48:56;19.95;56.36
72114;SHT31;59989;46.220;19.888;2022-07-23T01:52:13;19.88;56.48
72114;SHT31;59989;46.220;19.888;2022-07-23T01:55:19;19.85;57.31
72114;SHT31;59989;46.220;19.888;2022-07-23T01:58:24;19.82;58.40
72114;SHT31;59989;46.220;19.888;2022-07-23T02:01:27;19.75;57.39
72114;SHT31;59989;46.220;19.888;2022-07-23T02:04:30;19.73;57.94
72114;SHT31;59989;46.220;19.888;2022-07-23T02:07:32;19.69;57.51
72114;SHT31;59989;46.220;19.888;2022-07-23T02:10:36;19.70;57.02
72114;SHT31;59989;46.220;19.888;2022-07-23T02:13:39;19.64;57.54
72114;SHT31;59989;46.220;19.888;2022-07-23T02:16:41;19.61;57.23
72114;SHT31;59989;46.220;19.888;2022-07-23T02:19:44;19.60;57.30
72114;SHT31;59989;46.220;19.888;2022-07-23T02:22:47;19.56;56.85
72114;SHT31;59989;46.220;19.888;2022-07-23T02:25:49;19.50;58.23
72114;SHT31;59989;46.220;19.888;2022-07-23T02:28:52;19.47;59.45
72114;SHT31;59989;46.220;19.888;2022-07-23T02:31:57;19.43;58.56
72114;SHT31;59989;46.220;19.888;2022-07-23T02:35:00;19.40;59.54
72114;SHT31;59989;46.220;19.888;2022-07-23T02:38:03;19.37;59.74
72114;SHT31;59989;46.220;19.888;2022-07-23T02:41:06;19.33;60.96
72114;SHT31;59989;46.220;19.888;2022-07-23T02:44:09;19.29;61.96
72114;SHT31;59989;46.220;19.888;2022-07-23T02:47:11;19.24;61.29
72114;SHT31;59989;46.220;19.888;2022-07-23T02:50:14;19.16;61.75
72114;SHT31;59989;46.220;19.888;2022-07-23T02:53:18;19.13;62.01
72114;SHT31;59989;46.220;19.888;2022-07-23T02:56:20;19.08;63.43
72114;SHT31;59989;46.220;19.888;2022-07-23T02:59:23;19.05;64.23
72114;SHT31;59989;46.220;19.888;2022-07-23T03:02:25;18.99;64.66
72114;SHT31;59989;46.220;19.888;2022-07-23T03:05:28;18.98;64.32
72114;SHT31;59989;46.220;19.888;2022-07-23T03:08:31;19.01;65.24
72114;SHT31;59989;46.220;19.888;2022-07-23T03:11:33;18.99;64.66
72114;SHT31;59989;46.220;19.888;2022-07-23T03:14:36;18.94;66.22
72114;SHT31;59989;46.220;19.888;2022-07-23T03:17:38;18.91;65.47
72114;SHT31;59989;46.220;19.888;2022-07-23T03:20:41;18.88;65.70
72114;SHT31;59989;46.220;19.888;2022-07-23T03:23:45;18.88;66.74
72114;SHT31;59989;46.220;19.888;2022-07-23T03:26:47;18.87;66.13
72114;SHT31;59989;46.220;19.888;2022-07-23T03:29:51;18.89;65.10
72114;SHT31;59989;46.220;19.888;2022-07-23T03:32:54;18.88;65.88
72114;SHT31;59989;46.220;19.888;2022-07-23T03:35:57;18.85;66.45
72114;SHT31;59989;46.220;19.888;2022-07-23T03:39:04;18.81;66.07
72114;SHT31;59989;46.220;19.888;2022-07-23T03:42:07;18.84;65.82
72114;SHT31;59989;46.220;19.888;2022-07-23T03:45:10;18.84;66.22
72114;SHT31;59989;46.220;19.888;2022-07-23T03:48:12;18.87;66.34
72114;SHT31;59989;46.220;19.888;2022-07-23T03:51:15;18.89;66.15
72114;SHT31;59989;46.220;19.888;2022-07-23T03:54:17;18.96;64.83
72114;SHT31;59989;46.220;19.888;2022-07-23T03:57:21;19.09;64.34
72114;SHT31;59989;46.220;19.888;2022-07-23T04:00:23;19.18;65.10
72114;SHT31;59989;46.220;19.888;2022-07-23T04:03:26;19.22;64.70
72114;SHT31;59989;46.220;19.888;2022-07-23T04:06:29;19.34;63.65
72114;SHT31;59989;46.220;19.888;2022-07-23T04:09:33;19.45;63.81
72114;SHT31;59989;46.220;19.888;2022-07-23T04:12:36;19.59;63.04
72114;SHT31;59989;46.220;19.888;2022-07-23T04:15:39;19.69;62.66
72114;SHT31;59989;46.220;19.888;2022-07-23T04:18:42;19.81;63.28
72114;SHT31;59989;46.220;19.888;2022-07-23T04:21:50;19.97;62.57
72114;SHT31;59989;46.220;19.888;2022-07-23T04:24:53;20.07;63.03
72114;SHT31;59989;46.220;19.888;2022-07-23T04:27:55;20.28;62.36
72114;SHT31;59989;46.220;19.888;2022-07-23T04:30:58;20.38;62.35
72114;SHT31;59989;46.220;19.888;2022-07-23T04:34:01;20.48;61.26
72114;SHT31;59989;46.220;19.888;2022-07-23T04:37:05;20.62;61.22
72114;SHT31;59989;46.220;19.888;2022-07-23T04:40:08;20.75;59.89
72114;SHT31;59989;46.220;19.888;2022-07-23T04:43:11;20.87;60.09
72114;SHT31;59989;46.220;19.888;2022-07-23T04:46:20;20.94;59.49
72114;SHT31;59989;46.220;19.888;2022-07-23T04:49:25;21.12;59.90
72114;SHT31;59989;46.220;19.888;2022-07-23T04:52:29;21.23;58.90
72114;SHT31;59989;46.220;19.888;2022-07-23T04:55:31;21.35;58.57
72114;SHT31;59989;46.220;19.888;2022-07-23T04:58:34;21.46;57.97
72114;SHT31;59989;46.220;19.888;2022-07-23T05:01:37;21.63;57.62
72114;SHT31;59989;46.220;19.888;2022-07-23T05:04:39;21.71;58.59
72114;SHT31;59989;46.220;19.888;2022-07-23T05:07:42;21.82;59.71
72114;SHT31;59989;46.220;19.888;2022-07-23T05:10:44;21.99;58.68
72114;SHT31;59989;46.220;19.888;2022-07-23T05:13:48;22.20;59.76
72114;SHT31;59989;46.220;19.888;2022-07-23T05:16:51;22.40;58.36
72114;SHT31;59989;46.220;19.888;2022-07-23T05:19:57;22.52;58.36
72114;SHT31;59989;46.220;19.888;2022-07-23T05:23:03;22.67;56.47
72114;SHT31;59989;46.220;19.888;2022-07-23T05:26:06;22.79;55.63
72114;SHT31;59989;46.220;19.888;2022-07-23T05:29:09;22.92;54.82
72114;SHT31;59989;46.220;19.888;2022-07-23T05:32:12;23.03;54.01
72114;SHT31;59989;46.220;19.888;2022-07-23T05:35:21;23.26;53.13
72114;SHT31;59989;46.220;19.888;2022-07-23T05:38:41;23.31;53.24
72114;SHT31;59989;46.220;19.888;2022-07-23T05:41:43;23.43;51.74
72114;SHT31;59989;46.220;19.888;2022-07-23T05:44:46;23.60;48.76
72114;SHT31;59989;46.220;19.888;2022-07-23T05:47:49;23.87;48.81
72114;SHT31;59989;46.220;19.888;2022-07-23T05:51:08;24.29;47.09
72114;SHT31;59989;46.220;19.888;2022-07-23T05:54:11;24.67;45.98
72114;SHT31;59989;46.220;19.888;2022-07-23T05:57:14;24.86;45.34
72114;SHT31;59989;46.220;19.888;2022-07-23T06:00:17;24.91;44.65
72114;SHT31;59989;46.220;19.888;2022-07-23T06:03:23;25.07;44.27
72114;SHT31;59989;46.220;19.888;2022-07-23T06:06:26;25.12;43.30
72114;SHT31;59989;46.220;19.888;2022-07-23T06:09:29;25.34;42.98
72114;SHT31;59989;46.220;19.888;2022-07-23T06:12:32;25.52;43.78
72114;SHT31;59989;46.220;19.888;2022-07-23T06:15:36;25.75;44.05
72114;SHT31;59989;46.220;19.888;2022-07-23T06:18:38;25.94;43.61
72114;SHT31;59989;46.220;19.888;2022-07-23T06:21:41;26.17;42.59
72114;SHT31;59989;46.220;19.888;2022-07-23T06:24:50;26.36;41.63
72114;SHT31;59989;46.220;19.888;2022-07-23T06:27:56;26.52;41.13
72114;SHT31;59989;46.220;19.888;2022-07-23T06:31:01;26.71;43.04
72114;SHT31;59989;46.220;19.888;2022-07-23T06:34:06;26.96;42.45
72114;SHT31;59989;46.220;19.888;2022-07-23T06:37:10;27.22;40.96
72114;SHT31;59989;46.220;19.888;2022-07-23T06:40:15;27.53;40.86
72114;SHT31;59989;46.220;19.888;2022-07-23T06:43:18;27.77;40.39
72114;SHT31;59989;46.220;19.888;2022-07-23T06:46:21;28.06;41.13
72114;SHT31;59989;46.220;19.888;2022-07-23T06:49:25;28.46;39.70
72114;SHT31;59989;46.220;19.888;2022-07-23T06:52:27;28.78;39.13
72114;SHT31;59989;46.220;19.888;2022-07-23T06:55:30;29.08;37.30
72114;SHT31;59989;46.220;19.888;2022-07-23T06:58:33;29.45;36.82
72114;SHT31;59989;46.220;19.888;2022-07-23T07:01:35;29.84;34.79
72114;SHT31;59989;46.220;19.888;2022-07-23T07:04:39;30.04;35.76
72114;SHT31;59989;46.220;19.888;2022-07-23T07:07:42;30.41;34.69
72114;SHT31;59989;46.220;19.888;2022-07-23T07:10:44;30.71;35.22
72114;SHT31;59989;46.220;19.888;2022-07-23T07:13:47;30.89;34.97
72114;SHT31;59989;46.220;19.888;2022-07-23T07:16:49;31.04;34.73
72114;SHT31;59989;46.220;19.888;2022-07-23T07:19:52;31.22;33.41
72114;SHT31;59989;46.220;19.888;2022-07-23T07:22:55;31.54;32.69
72114;SHT31;59989;46.220;19.888;2022-07-23T07:25:57;31.96;32.29
72114;SHT31;59989;46.220;19.888;2022-07-23T07:29:00;32.26;32.88
72114;SHT31;59989;46.220;19.888;2022-07-23T07:32:03;32.52;33.18
72114;SHT31;59989;46.220;19.888;2022-07-23T07:35:07;32.72;32.87
72114;SHT31;59989;46.220;19.888;2022-07-23T07:38:09;32.90;32.38
72114;SHT31;59989;46.220;19.888;2022-07-23T07:41:12;32.84;31.05
72114;SHT31;59989;46.220;19.888;2022-07-23T07:44:16;33.20;30.19
72114;SHT31;59989;46.220;19.888;2022-07-23T07:47:18;33.45;30.69
72114;SHT31;59989;46.220;19.888;2022-07-23T07:50:21;33.72;28.52
72114;SHT31;59989;46.220;19.888;2022-07-23T07:53:25;33.92;28.42
72114;SHT31;59989;46.220;19.888;2022-07-23T07:56:27;33.92;28.33
72114;SHT31;59989;46.220;19.888;2022-07-23T07:59:30;34.26;27.60
72114;SHT31;59989;46.220;19.888;2022-07-23T08:02:51;34.54;25.75
72114;SHT31;59989;46.220;19.888;2022-07-23T08:05:55;34.90;27.05
72114;SHT31;59989;46.220;19.888;2022-07-23T08:08:57;35.03;27.14
72114;SHT31;59989;46.220;19.888;2022-07-23T08:12:00;35.22;25.85
72114;SHT31;59989;46.220;19.888;2022-07-23T08:15:02;35.51;26.69
72114;SHT31;59989;46.220;19.888;2022-07-23T08:18:05;35.42;26.73
72114;SHT31;59989;46.220;19.888;2022-07-23T08:21:08;35.63;26.31
72114;SHT31;59989;46.220;19.888;2022-07-23T08:24:10;35.72;25.52
72114;SHT31;59989;46.220;19.888;2022-07-23T08:27:13;35.97;24.89
72114;SHT31;59989;46.220;19.888;2022-07-23T08:30:16;36.21;25.73
72114;SHT31;59989;46.220;19.888;2022-07-23T08:33:19;36.56;24.83
72114;SHT31;59989;46.220;19.888;2022-07-23T08:36:35;36.78;24.31
72114;SHT31;59989;46.220;19.888;2022-07-23T08:39:39;36.49;24.66
72114;SHT31;59989;46.220;19.888;2022-07-23T08:42:41;37.04;23.22
72114;SHT31;59989;46.220;19.888;2022-07-23T08:45:46;36.84;24.30
72114;SHT31;59989;46.220;19.888;2022-07-23T08:48:49;37.03;25.00
72114;SHT31;59989;46.220;19.888;2022-07-23T08:51:52;37.33;25.02
72114;SHT31;59989;46.220;19.888;2022-07-23T08:54:56;37.57;23.60
72114;SHT31;59989;46.220;19.888;2022-07-23T08:57:59;37.69;24.18
72114;SHT31;59989;46.220;19.888;2022-07-23T09:01:02;37.26;24.81
72114;SHT31;59989;46.220;19.888;2022-07-23T09:04:05;37.38;24.66
72114;SHT31;59989;46.220;19.888;2022-07-23T09:07:08;37.55;22.86
72114;SHT31;59989;46.220;19.888;2022-07-23T09:10:11;38.15;22.51
72114;SHT31;59989;46.220;19.888;2022-07-23T09:13:28;38.02;21.97
72114;SHT31;59989;46.220;19.888;2022-07-23T09:16:31;38.11;22.68
72114;SHT31;59989;46.220;19.888;2022-07-23T09:19:34;38.39;21.42
72114;SHT31;59989;46.220;19.888;2022-07-23T09:22:36;38.67;20.17
72114;SHT31;59989;46.220;19.888;2022-07-23T09:25:39;39.04;20.70
72114;SHT31;59989;46.220;19.888;2022-07-23T09:28:50;39.07;20.69
72114;SHT31;59989;46.220;19.888;2022-07-23T09:31:55;39.46;20.45
72114;SHT31;59989;46.220;19.888;2022-07-23T09:34:58;39.01;20.95
72114;SHT31;59989;46.220;19.888;2022-07-23T09:38:01;38.84;21.22
72114;SHT31;59989;46.220;19.888;2022-07-23T09:41:08;39.08;20.66
72114;SHT31;59989;46.220;19.888;2022-07-23T09:44:16;39.68;20.51
72114;SHT31;59989;46.220;19.888;2022-07-23T09:47:20;39.08;20.26
72114;SHT31;59989;46.220;19.888;2022-07-23T09:50:23;39.37;20.24
72114;SHT31;59989;46.220;19.888;2022-07-23T09:53:29;40.16;19.48
72114;SHT31;59989;46.220;19.888;2022-07-23T09:56:33;39.83;20.08
72114;SHT31;59989;46.220;19.888;2022-07-23T09:59:37;39.73;19.40
72114;SHT31;59989;46.220;19.888;2022-07-23T10:02:40;39.45;19.29
72114;SHT31;59989;46.220;19.888;2022-07-23T10:06:01;40.33;18.71
72114;SHT31;59989;46.220;19.888;2022-07-23T10:09:42;39.62;18.41
72114;SHT31;59989;46.220;19.888;2022-07-23T10:13:08;39.46;18.55
72114;SHT31;59989;46.220;19.888;2022-07-23T10:16:29;39.89;18.03
72114;SHT31;59989;46.220;19.888;2022-07-23T10:19:32;41.00;17.48
72114;SHT31;59989;46.220;19.888;2022-07-23T10:22:37;41.57;17.89
72114;SHT31;59989;46.220;19.888;2022-07-23T10:26:20;40.98;16.99
72114;SHT31;59989;46.220;19.888;2022-07-23T10:36:22;41.10;17.09
72114;SHT31;59989;46.220;19.888;2022-07-23T10:39:31;42.08;16.74
72114;SHT31;59989;46.220;19.888;2022-07-23T10:42:35;41.73;16.93
72114;SHT31;59989;46.220;19.888;2022-07-23T10:45:37;42.05;16.56
72114;SHT31;59989;46.220;19.888;2022-07-23T10:48:40;41.71;16.88
72114;SHT31;59989;46.220;19.888;2022-07-23T10:58:47;42.18;16.14
72114;SHT31;59989;46.220;19.888;2022-07-23T11:01:50;42.33;16.16
72114;SHT31;59989;46.220;19.888;2022-07-23T11:04:59;43.34;16.69
72114;SHT31;59989;46.220;19.888;2022-07-23T11:11:10;43.65;15.44
72114;SHT31;59989;46.220;19.888;2022-07-23T11:14:13;42.93;16.25
72114;SHT31;59989;46.220;19.888;2022-07-23T11:17:19;43.65;15.80
72114;SHT31;59989;46.220;19.888;2022-07-23T11:20:23;43.04;16.27
72114;SHT31;59989;46.220;19.888;2022-07-23T11:27:02;44.17;14.65
72114;SHT31;59989;46.220;19.888;2022-07-23T11:30:07;44.19;15.00
72114;SHT31;59989;46.220;19.888;2022-07-23T11:36:15;43.39;14.87
72114;SHT31;59989;46.220;19.888;2022-07-23T11:39:19;43.71;15.16
72114;SHT31;59989;46.220;19.888;2022-07-23T11:42:23;43.86;14.90
72114;SHT31;59989;46.220;19.888;2022-07-23T11:45:40;43.52;15.03
72114;SHT31;59989;46.220;19.888;2022-07-23T11:48:43;44.39;14.94
72114;SHT31;59989;46.220;19.888;2022-07-23T11:51:46;43.86;14.11
72114;SHT31;59989;46.220;19.888;2022-07-23T11:55:00;45.53;13.01
72114;SHT31;59989;46.220;19.888;2022-07-23T11:58:03;44.54;13.68
72114;SHT31;59989;46.220;19.888;2022-07-23T12:01:06;46.38;13.16
72114;SHT31;59989;46.220;19.888;2022-07-23T12:04:14;46.74;12.53
72114;SHT31;59989;46.220;19.888;2022-07-23T12:07:33;46.46;12.20
72114;SHT31;59989;46.220;19.888;2022-07-23T12:10:43;47.22;12.42
72114;SHT31;59989;46.220;19.888;2022-07-23T12:13:56;47.15;12.23
72114;SHT31;59989;46.220;19.888;2022-07-23T12:17:09;45.80;13.56
72114;SHT31;59989;46.220;19.888;2022-07-23T12:20:18;45.90;13.17
72114;SHT31;59989;46.220;19.888;2022-07-23T12:23:22;46.91;12.94
72114;SHT31;59989;46.220;19.888;2022-07-23T12:26:24;46.71;13.12
72114;SHT31;59989;46.220;19.888;2022-07-23T12:29:37;47.85;12.15
72114;SHT31;59989;46.220;19.888;2022-07-23T12:32:43;47.13;12.63
72114;SHT31;59989;46.220;19.888;2022-07-23T12:35:47;47.26;13.06
72114;SHT31;59989;46.220;19.888;2022-07-23T12:38:50;46.42;13.68
72114;SHT31;59989;46.220;19.888;2022-07-23T12:41:53;45.43;13.55
72114;SHT31;59989;46.220;19.888;2022-07-23T12:45:07;48.21;12.42
72114;SHT31;59989;46.220;19.888;2022-07-23T12:48:25;48.32;12.80
72114;SHT31;59989;46.220;19.888;2022-07-23T12:51:30;49.48;11.95
72114;SHT31;59989;46.220;19.888;2022-07-23T12:54:34;46.72;13.07
72114;SHT31;59989;46.220;19.888;2022-07-23T12:57:46;48.11;12.13
72114;SHT31;59989;46.220;19.888;2022-07-23T13:01:02;46.27;13.91
72114;SHT31;59989;46.220;19.888;2022-07-23T13:04:11;47.39;13.07
72114;SHT31;59989;46.220;19.888;2022-07-23T13:07:15;50.28;11.48
72114;SHT31;59989;46.220;19.888;2022-07-23T13:10:18;51.30;11.05
72114;SHT31;59989;46.220;19.888;2022-07-23T13:13:22;49.54;11.90
72114;SHT31;59989;46.220;19.888;2022-07-23T13:16:32;47.23;13.04
72114;SHT31;59989;46.220;19.888;2022-07-23T13:19:35;46.80;13.06
72114;SHT31;59989;46.220;19.888;2022-07-23T13:22:37;48.96;12.43
72114;SHT31;59989;46.220;19.888;2022-07-23T13:25:40;50.18;11.82
72114;SHT31;59989;46.220;19.888;2022-07-23T13:28:44;50.94;11.71
72114;SHT31;59989;46.220;19.888;2022-07-23T13:31:47;51.22;12.08
72114;SHT31;59989;46.220;19.888;2022-07-23T13:34:52;51.57;11.18
72114;SHT31;59989;46.220;19.888;2022-07-23T13:37:54;52.61;11.27
72114;SHT31;59989;46.220;19.888;2022-07-23T13:40:57;51.38;11.66
72114;SHT31;59989;46.220;19.888;2022-07-23T13:44:00;51.80;10.71
72114;SHT31;59989;46.220;19.888;2022-07-23T13:47:04;48.40;11.89
72114;SHT31;59989;46.220;19.888;2022-07-23T13:50:07;49.35;12.04
72114;SHT31;59989;46.220;19.888;2022-07-23T13:53:12;47.67;12.45
72114;SHT31;59989;46.220;19.888;2022-07-23T13:56:15;51.11;11.06
72114;SHT31;59989;46.220;19.888;2022-07-23T13:59:18;52.27;10.78
72114;SHT31;59989;46.220;19.888;2022-07-23T14:02:20;49.60;12.15
72114;SHT31;59989;46.220;19.888;2022-07-23T14:05:26;47.82;12.54
72114;SHT31;59989;46.220;19.888;2022-07-23T14:08:29;49.82;11.50
72114;SHT31;59989;46.220;19.888;2022-07-23T14:11:32;49.77;12.14
72114;SHT31;59989;46.220;19.888;2022-07-23T14:14:35;48.85;11.89
72114;SHT31;59989;46.220;19.888;2022-07-23T14:17:40;51.13;11.04
72114;SHT31;59989;46.220;19.888;2022-07-23T14:20:44;51.21;10.79
72114;SHT31;59989;46.220;19.888;2022-07-23T14:23:47;53.35;10.55
72114;SHT31;59989;46.220;19.888;2022-07-23T14:26:49;53.33;10.12
72114;SHT31;59989;46.220;19.888;2022-07-23T14:29:52;54.66;9.89
72114;SHT31;59989;46.220;19.888;2022-07-23T14:32:55;52.60;10.81
72114;SHT31;59989;46.220;19.888;2022-07-23T14:35:58;53.77;10.26
72114;SHT31;59989;46.220;19.888;2022-07-23T14:39:02;53.08;10.32
72114;SHT31;59989;46.220;19.888;2022-07-23T14:42:08;53.73;9.91
72114;SHT31;59989;46.220;19.888;2022-07-23T14:45:12;50.26;11.06
72114;SHT31;59989;46.220;19.888;2022-07-23T14:48:15;52.51;10.14
72114;SHT31;59989;46.220;19.888;2022-07-23T14:51:19;53.60;9.89
72114;SHT31;59989;46.220;19.888;2022-07-23T14:54:22;54.21;9.76
72114;SHT31;59989;46.220;19.888;2022-07-23T14:57:25;52.26;10.66
72114;SHT31;59989;46.220;19.888;2022-07-23T15:00:29;51.75;10.57
72114;SHT31;59989;46.220;19.888;2022-07-23T15:03:31;50.64;10.82
72114;SHT31;59989;46.220;19.888;2022-07-23T15:06:41;49.71;11.14
72114;SHT31;59989;46.220;19.888;2022-07-23T15:09:44;50.20;10.91
72114;SHT31;59989;46.220;19.888;2022-07-23T15:12:49;51.53;10.36
72114;SHT31;59989;46.220;19.888;2022-07-23T15:15:52;49.17;11.31
72114;SHT31;59989;46.220;19.888;2022-07-23T15:18:58;48.93;11.55
72114;SHT31;59989;46.220;19.888;2022-07-23T15:22:01;50.76;10.79
72114;SHT31;59989;46.220;19.888;2022-07-23T15:25:05;49.74;10.96
72114;SHT31;59989;46.220;19.888;2022-07-23T15:28:09;47.84;11.71
72114;SHT31;59989;46.220;19.888;2022-07-23T15:31:11;50.05;11.00
72114;SHT31;59989;46.220;19.888;2022-07-23T15:34:15;49.26;10.82
72114;SHT31;59989;46.220;19.888;2022-07-23T15:37:17;48.44;11.42
72114;SHT31;59989;46.220;19.888;2022-07-23T15:40:20;49.09;11.29
72114;SHT31;59989;46.220;19.888;2022-07-23T15:43:23;48.87;11.60
72114;SHT31;59989;46.220;19.888;2022-07-23T15:46:27;49.50;11.67
72114;SHT31;59989;46.220;19.888;2022-07-23T15:49:30;49.03;11.41
72114;SHT31;59989;46.220;19.888;2022-07-23T15:52:33;50.73;11.62
72114;SHT31;59989;46.220;19.888;2022-07-23T15:55:36;48.65;11.38
72114;SHT31;59989;46.220;19.888;2022-07-23T15:58:40;48.79;11.55
72114;SHT31;59989;46.220;19.888;2022-07-23T16:01:43;48.27;11.82
72114;SHT31;59989;46.220;19.888;2022-07-23T16:04:46;50.55;10.92
72114;SHT31;59989;46.220;19.888;2022-07-23T16:07:48;50.40;11.05
72114;SHT31;59989;46.220;19.888;2022-07-23T16:10:51;48.42;12.02
72114;SHT31;59989;46.220;19.888;2022-07-23T16:13:53;44.56;13.31
72114;SHT31;59989;46.220;19.888;2022-07-23T16:16:55;42.86;14.12
72114;SHT31;59989;46.220;19.888;2022-07-23T16:19:58;41.05;15.23
72114;SHT31;59989;46.220;19.888;2022-07-23T16:23:01;40.43;15.93
72114;SHT31;59989;46.220;19.888;2022-07-23T16:26:04;39.48;16.85
72114;SHT31;59989;46.220;19.888;2022-07-23T16:29:06;38.98;17.30
72114;SHT31;59989;46.220;19.888;2022-07-23T16:32:20;38.90;17.52
72114;SHT31;59989;46.220;19.888;2022-07-23T16:35:23;39.08;17.29
72114;SHT31;59989;46.220;19.888;2022-07-23T16:38:26;40.20;16.68
72114;SHT31;59989;46.220;19.888;2022-07-23T16:41:28;41.49;15.50
72114;SHT31;59989;46.220;19.888;2022-07-23T16:44:31;42.51;14.99
72114;SHT31;59989;46.220;19.888;2022-07-23T16:47:34;41.91;15.13
72114;SHT31;59989;46.220;19.888;2022-07-23T16:50:36;42.38;15.03
72114;SHT31;59989;46.220;19.888;2022-07-23T16:53:39;42.09;14.95
72114;SHT31;59989;46.220;19.888;2022-07-23T16:56:41;42.25;15.25
72114;SHT31;59989;46.220;19.888;2022-07-23T16:59:44;41.13;16.18
72114;SHT31;59989;46.220;19.888;2022-07-23T17:02:46;39.59;17.18
72114;SHT31;59989;46.220;19.888;2022-07-23T17:05:49;38.95;18.75
72114;SHT31;59989;46.220;19.888;2022-07-23T17:08:52;38.54;19.01
72114;SHT31;59989;46.220;19.888;2022-07-23T17:11:55;37.99;20.48
72114;SHT31;59989;46.220;19.888;2022-07-23T17:14:58;36.96;21.99
72114;SHT31;59989;46.220;19.888;2022-07-23T17:18:07;36.63;21.64
72114;SHT31;59989;46.220;19.888;2022-07-23T17:21:14;36.28;22.49
72114;SHT31;59989;46.220;19.888;2022-07-23T17:24:17;35.98;22.10
72114;SHT31;59989;46.220;19.888;2022-07-23T17:27:22;35.64;22.65
72114;SHT31;59989;46.220;19.888;2022-07-23T17:30:24;35.36;22.92
72114;SHT31;59989;46.220;19.888;2022-07-23T17:33:27;35.16;23.34
72114;SHT31;59989;46.220;19.888;2022-07-23T17:36:29;34.91;24.23
72114;SHT31;59989;46.220;19.888;2022-07-23T17:39:32;34.64;24.29
72114;SHT31;59989;46.220;19.888;2022-07-23T17:42:34;34.41;24.29
72114;SHT31;59989;46.220;19.888;2022-07-23T17:45:39;34.27;24.23
72114;SHT31;59989;46.220;19.888;2022-07-23T17:48:44;34.02;24.82
72114;SHT31;59989;46.220;19.888;2022-07-23T17:51:47;33.82;25.90
72114;SHT31;59989;46.220;19.888;2022-07-23T17:54:50;33.59;25.49
72114;SHT31;59989;46.220;19.888;2022-07-23T17:57:53;33.32;26.43
72114;SHT31;59989;46.220;19.888;2022-07-23T18:00:56;33.14;26.84
72114;SHT31;59989;46.220;19.888;2022-07-23T18:03:58;32.93;27.47
72114;SHT31;59989;46.220;19.888;2022-07-23T18:07:01;32.67;27.30
72114;SHT31;59989;46.220;19.888;2022-07-23T18:10:05;32.53;27.66
72114;SHT31;59989;46.220;19.888;2022-07-23T18:13:08;32.37;27.03
72114;SHT31;59989;46.220;19.888;2022-07-23T18:16:11;32.28;27.70
72114;SHT31;59989;46.220;19.888;2022-07-23T18:19:13;32.12;27.42
72114;SHT31;59989;46.220;19.888;2022-07-23T18:22:16;32.06;29.69
72114;SHT31;59989;46.220;19.888;2022-07-23T18:25:19;31.81;31.21
72114;SHT31;59989;46.220;19.888;2022-07-23T18:28:26;31.74;29.57
72114;SHT31;59989;46.220;19.888;2022-07-23T18:31:28;31.60;30.21
72114;SHT31;59989;46.220;19.888;2022-07-23T18:34:31;31.46;29.76
72114;SHT31;59989;46.220;19.888;2022-07-23T18:37:34;31.33;29.91
72114;SHT31;59989;46.220;19.888;2022-07-23T18:40:39;31.16;31.56
72114;SHT31;59989;46.220;19.888;2022-07-23T18:43:41;31.03;30.90
72114;SHT31;59989;46.220;19.888;2022-07-23T18:46:44;30.90;31.38
72114;SHT31;59989;46.220;19.888;2022-07-23T18:49:46;30.85;32.91
72114;SHT31;59989;46.220;19.888;2022-07-23T18:52:49;31.03;30.95
72114;SHT31;59989;46.220;19.888;2022-07-23T18:55:51;31.31;30.11
72114;SHT31;59989;46.220;19.888;2022-07-23T18:58:54;31.33;30.63
72114;SHT31;59989;46.220;19.888;2022-07-23T19:01:57;31.22;31.65
72114;SHT31;59989;46.220;19.888;2022-07-23T19:05:00;31.16;32.73
72114;SHT31;59989;46.220;19.888;2022-07-23T19:08:03;30.88;34.68
72114;SHT31;59989;46.220;19.888;2022-07-23T19:11:08;30.72;36.08
72114;SHT31;59989;46.220;19.888;2022-07-23T19:14:11;30.55;35.87
72114;SHT31;59989;46.220;19.888;2022-07-23T19:17:14;30.47;36.18
72114;SHT31;59989;46.220;19.888;2022-07-23T19:20:16;30.30;36.72
72114;SHT31;59989;46.220;19.888;2022-07-23T19:23:19;30.14;37.57
72114;SHT31;59989;46.220;19.888;2022-07-23T19:26:21;29.96;37.12
72114;SHT31;59989;46.220;19.888;2022-07-23T19:29:25;29.80;38.66
72114;SHT31;59989;46.220;19.888;2022-07-23T19:32:28;29.70;38.16